createdAt,value
2018-11-03T00:00:42.075Z,1013.77
2018-11-03T00:01:42.049Z,1013.73
2018-11-03T00:02:42.071Z,1013.76
2018-11-03T00:03:42.085Z,1013.74
2018-11-03T00:04:42.114Z,1013.74
2018-11-03T00:05:42.129Z,1013.76
2018-11-03T00:06:42.140Z,1013.80
2018-11-03T00:07:42.163Z,1013.77
2018-11-03T00:08:42.202Z,1013.80
2018-11-03T00:09:42.202Z,1013.78
2018-11-03T00:10:42.225Z,1013.76
2018-11-03T00:11:42.240Z,1013.78
2018-11-03T00:12:42.256Z,1013.82
2018-11-03T00:13:42.279Z,1013.82
2018-11-03T00:14:42.295Z,1013.82
2018-11-03T00:15:42.315Z,1013.81
2018-11-03T00:16:42.331Z,1013.78
2018-11-03T00:17:42.349Z,1013.84
2018-11-03T00:18:42.373Z,1013.78
2018-11-03T00:19:42.389Z,1013.84
2018-11-03T00:20:42.410Z,1013.81
2018-11-03T00:21:42.424Z,1013.84
2018-11-03T00:22:42.440Z,1013.80
2018-11-03T00:23:42.465Z,1013.81
2018-11-03T00:24:42.480Z,1013.79
2018-11-03T00:25:42.516Z,1013.78
2018-11-03T00:26:42.526Z,1013.83
2018-11-03T00:27:42.538Z,1013.83
2018-11-03T00:28:42.554Z,1013.85
2018-11-03T00:29:42.572Z,1013.83
2018-11-03T00:30:42.599Z,1013.90
2018-11-03T00:31:42.616Z,1013.89
2018-11-03T00:32:42.631Z,1013.89
2018-11-03T00:33:42.652Z,1013.86
2018-11-03T00:34:42.666Z,1013.87
2018-11-03T00:35:42.687Z,1013.89
2018-11-03T00:36:42.707Z,1013.92
2018-11-03T00:37:42.722Z,1013.93
2018-11-03T00:38:42.749Z,1013.92
2018-11-03T00:39:42.759Z,1013.89
2018-11-03T00:40:42.779Z,1013.93
2018-11-03T00:41:42.794Z,1013.95
2018-11-03T00:42:42.835Z,1013.93
2018-11-03T00:43:42.840Z,1013.95
2018-11-03T00:44:42.862Z,1013.94
2018-11-03T00:45:42.871Z,1013.95
2018-11-03T00:46:42.890Z,1014.00
2018-11-03T00:47:42.924Z,1013.99
2018-11-03T00:48:42.925Z,1014.02
2018-11-03T00:49:42.945Z,1014.04
2018-11-03T00:50:42.965Z,1014.06
2018-11-03T00:51:42.998Z,1014.10
2018-11-03T00:52:42.998Z,1014.12
2018-11-03T00:53:43.014Z,1014.12
2018-11-03T00:54:43.032Z,1014.10
2018-11-03T00:55:43.054Z,1014.09
2018-11-03T00:56:43.072Z,1014.07
2018-11-03T00:57:43.090Z,1014.11
2018-11-03T00:58:43.105Z,1014.11
2018-11-03T00:59:43.121Z,1014.08
2018-11-03T01:00:43.145Z,1014.08
2018-11-03T01:01:43.163Z,1014.08
2018-11-03T01:02:43.180Z,1014.13
2018-11-03T01:03:43.195Z,1014.12
2018-11-03T01:04:43.216Z,1014.13
2018-11-03T01:05:43.242Z,1014.15
2018-11-03T01:06:43.261Z,1014.18
2018-11-03T01:07:43.273Z,1014.16
2018-11-03T01:08:43.286Z,1014.20
2018-11-03T01:09:43.302Z,1014.24
2018-11-03T01:10:43.321Z,1014.21
2018-11-03T01:11:43.339Z,1014.23
2018-11-03T01:12:43.372Z,1014.23
2018-11-03T01:13:43.375Z,1014.21
2018-11-03T01:14:43.399Z,1014.19
2018-11-03T01:15:43.411Z,1014.23
2018-11-03T01:16:43.434Z,1014.21
2018-11-03T01:17:43.446Z,1014.22
2018-11-03T01:18:43.472Z,1014.22
2018-11-03T01:19:43.483Z,1014.18
2018-11-03T01:20:43.504Z,1014.23
2018-11-03T01:21:43.518Z,1014.23
2018-11-03T01:22:43.539Z,1014.19
2018-11-03T01:23:43.623Z,1014.20
2018-11-03T01:24:43.570Z,1014.23
2018-11-03T01:25:43.585Z,1014.22
2018-11-03T01:26:43.608Z,1014.23
2018-11-03T01:27:43.625Z,1014.22
2018-11-03T01:28:43.645Z,1014.22
2018-11-03T01:29:43.663Z,1014.23
2018-11-03T01:30:43.689Z,1014.25
2018-11-03T01:31:43.701Z,1014.26
2018-11-03T01:32:43.861Z,1014.23
2018-11-03T01:33:43.729Z,1014.23
2018-11-03T01:34:43.754Z,1014.25
2018-11-03T01:35:43.767Z,1014.23
2018-11-03T01:36:43.802Z,1014.22
2018-11-03T01:37:43.800Z,1014.27
2018-11-03T01:38:43.816Z,1014.27
2018-11-03T01:39:43.834Z,1014.27
2018-11-03T01:40:43.873Z,1014.25
2018-11-03T01:41:43.871Z,1014.31
2018-11-03T01:42:43.893Z,1014.33
2018-11-03T01:43:43.902Z,1014.35
2018-11-03T01:44:43.941Z,1014.35
2018-11-03T01:45:43.944Z,1014.36
2018-11-03T01:46:43.959Z,1014.39
2018-11-03T01:47:43.974Z,1014.46
2018-11-03T01:48:43.996Z,1014.42
2018-11-03T01:49:44.017Z,1014.41
2018-11-03T01:50:44.025Z,1014.44
2018-11-03T01:51:44.039Z,1014.44
2018-11-03T01:52:44.064Z,1014.45
2018-11-03T01:53:44.084Z,1014.46
2018-11-03T01:54:44.125Z,1014.45
2018-11-03T01:55:44.114Z,1014.43
2018-11-03T01:56:44.129Z,1014.44
2018-11-03T01:57:44.143Z,1014.44
2018-11-03T01:58:44.167Z,1014.45
2018-11-03T01:59:44.183Z,1014.44
2018-11-03T02:00:44.200Z,1014.41
2018-11-03T02:01:44.211Z,1014.42
2018-11-03T02:02:44.230Z,1014.45
2018-11-03T02:03:44.248Z,1014.41
2018-11-03T02:04:44.281Z,1014.47
2018-11-03T02:05:44.283Z,1014.42
2018-11-03T02:06:44.302Z,1014.43
2018-11-03T02:07:44.314Z,1014.41
2018-11-03T02:08:44.333Z,1014.44
2018-11-03T02:09:44.354Z,1014.41
2018-11-03T02:10:44.370Z,1014.44
2018-11-03T02:11:44.389Z,1014.45
2018-11-03T02:12:44.401Z,1014.45
2018-11-03T02:13:44.415Z,1014.45
2018-11-03T02:14:44.434Z,1014.42
2018-11-03T02:15:44.455Z,1014.37
2018-11-03T02:16:44.474Z,1014.40
2018-11-03T02:17:44.485Z,1014.43
2018-11-03T02:18:44.501Z,1014.42
2018-11-03T02:19:44.525Z,1014.43
2018-11-03T02:20:44.556Z,1014.48
2018-11-03T02:21:44.555Z,1014.48
2018-11-03T02:22:44.573Z,1014.52
2018-11-03T02:23:44.590Z,1014.49
2018-11-03T02:24:44.604Z,1014.50
2018-11-03T02:25:44.644Z,1014.49
2018-11-03T02:26:44.641Z,1014.46
2018-11-03T02:27:44.656Z,1014.50
2018-11-03T02:28:44.672Z,1014.50
2018-11-03T02:29:44.693Z,1014.49
2018-11-03T02:30:44.703Z,1014.51
2018-11-03T02:31:44.719Z,1014.50
2018-11-03T02:32:44.744Z,1014.56
2018-11-03T02:33:44.754Z,1014.48
2018-11-03T02:34:44.772Z,1014.53
2018-11-03T02:35:44.785Z,1014.51
2018-11-03T02:36:44.810Z,1014.51
2018-11-03T02:37:44.844Z,1014.54
2018-11-03T02:38:44.842Z,1014.52
2018-11-03T02:39:44.857Z,1014.53
2018-11-03T02:40:44.873Z,1014.56
2018-11-03T02:41:44.890Z,1014.52
2018-11-03T02:42:44.903Z,1014.56
2018-11-03T02:43:44.923Z,1014.54
2018-11-03T02:44:44.935Z,1014.53
2018-11-03T02:45:44.957Z,1014.59
2018-11-03T02:46:44.973Z,1014.58
2018-11-03T02:47:44.983Z,1014.59
2018-11-03T02:48:45.007Z,1014.58
2018-11-03T02:49:45.042Z,1014.59
2018-11-03T02:50:45.084Z,1014.63
2018-11-03T02:51:45.064Z,1014.63
2018-11-03T02:52:45.093Z,1014.63
2018-11-03T02:53:45.086Z,1014.64
2018-11-03T02:54:45.102Z,1014.64
2018-11-03T02:55:45.129Z,1014.64
2018-11-03T02:56:45.135Z,1014.59
2018-11-03T02:57:45.163Z,1014.61
2018-11-03T02:58:45.165Z,1014.58
2018-11-03T02:59:45.186Z,1014.59
2018-11-03T03:00:45.200Z,1014.58
2018-11-03T03:01:45.249Z,1014.59
2018-11-03T03:02:45.258Z,1014.61
2018-11-03T03:03:45.282Z,1014.59
2018-11-03T03:04:45.277Z,1014.56
2018-11-03T03:05:45.312Z,1014.56
2018-11-03T03:06:45.297Z,1014.52
2018-11-03T03:07:45.318Z,1014.53
2018-11-03T03:08:45.333Z,1014.54
2018-11-03T03:09:45.349Z,1014.54
2018-11-03T03:10:45.361Z,1014.54
2018-11-03T03:11:45.382Z,1014.52
2018-11-03T03:12:45.398Z,1014.53
2018-11-03T03:13:45.410Z,1014.49
2018-11-03T03:14:45.440Z,1014.46
2018-11-03T03:15:45.444Z,1014.47
2018-11-03T03:16:45.462Z,1014.46
2018-11-03T03:17:45.490Z,1014.51
2018-11-03T03:18:45.493Z,1014.49
2018-11-03T03:19:45.519Z,1014.50
2018-11-03T03:20:45.540Z,1014.54
2018-11-03T03:21:45.543Z,1014.52
2018-11-03T03:22:45.559Z,1014.49
2018-11-03T03:23:45.580Z,1014.53
2018-11-03T03:24:45.596Z,1014.57
2018-11-03T03:25:45.610Z,1014.58
2018-11-03T03:26:45.629Z,1014.55
2018-11-03T03:27:45.640Z,1014.55
2018-11-03T03:28:45.792Z,1014.57
2018-11-03T03:29:45.864Z,1014.53
2018-11-03T03:30:45.688Z,1014.48
2018-11-03T03:31:45.704Z,1014.56
2018-11-03T03:32:45.722Z,1014.53
2018-11-03T03:33:45.740Z,1014.57
2018-11-03T03:34:45.749Z,1014.61
2018-11-03T03:35:45.773Z,1014.61
2018-11-03T03:36:45.784Z,1014.61
2018-11-03T03:37:45.806Z,1014.62
2018-11-03T03:38:45.830Z,1014.63
2018-11-03T03:39:45.875Z,1014.59
2018-11-03T03:40:45.853Z,1014.62
2018-11-03T03:41:45.867Z,1014.58
2018-11-03T03:42:45.888Z,1014.61
2018-11-03T03:43:45.896Z,1014.62
2018-11-03T03:44:45.909Z,1014.66
2018-11-03T03:45:45.938Z,1014.69
2018-11-03T03:46:45.958Z,1014.74
2018-11-03T03:47:45.957Z,1014.70
2018-11-03T03:48:45.980Z,1014.71
2018-11-03T03:49:45.989Z,1014.72
2018-11-03T03:50:46.039Z,1014.73
2018-11-03T03:51:46.028Z,1014.71
2018-11-03T03:52:46.036Z,1014.77
2018-11-03T03:53:46.053Z,1014.73
2018-11-03T03:54:46.066Z,1014.73
2018-11-03T03:55:46.083Z,1014.72
2018-11-03T03:56:46.107Z,1014.70
2018-11-03T03:57:46.112Z,1014.72
2018-11-03T03:58:46.128Z,1014.71
2018-11-03T03:59:46.149Z,1014.74
2018-11-03T04:00:46.164Z,1014.75
2018-11-03T04:01:46.208Z,1014.76
2018-11-03T04:02:46.191Z,1014.74
2018-11-03T04:03:46.207Z,1014.71
2018-11-03T04:04:46.225Z,1014.75
2018-11-03T04:05:46.236Z,1014.75
2018-11-03T04:06:46.254Z,1014.79
2018-11-03T04:07:46.280Z,1014.74
2018-11-03T04:08:46.286Z,1014.76
2018-11-03T04:09:46.300Z,1014.75
2018-11-03T04:10:46.315Z,1014.77
2018-11-03T04:11:46.335Z,1014.82
2018-11-03T04:12:46.347Z,1014.80
2018-11-03T04:13:46.361Z,1014.80
2018-11-03T04:14:46.380Z,1014.81
2018-11-03T04:15:46.397Z,1014.82
2018-11-03T04:16:46.406Z,1014.80
2018-11-03T04:17:46.435Z,1014.80
2018-11-03T04:18:46.448Z,1014.76
2018-11-03T04:19:46.456Z,1014.78
2018-11-03T04:20:46.477Z,1014.79
2018-11-03T04:21:46.484Z,1014.79
2018-11-03T04:22:46.512Z,1014.82
2018-11-03T04:23:46.518Z,1014.81
2018-11-03T04:24:46.538Z,1014.78
2018-11-03T04:25:46.547Z,1014.81
2018-11-03T04:26:46.564Z,1014.80
2018-11-03T04:27:46.577Z,1014.79
2018-11-03T04:28:46.592Z,1014.77
2018-11-03T04:29:46.604Z,1014.74
2018-11-03T04:30:46.623Z,1014.76
2018-11-03T04:31:46.641Z,1014.74
2018-11-03T04:32:46.672Z,1014.69
2018-11-03T04:33:46.667Z,1014.73
2018-11-03T04:34:46.684Z,1014.72
2018-11-03T04:35:46.721Z,1014.68
2018-11-03T04:36:46.722Z,1014.73
2018-11-03T04:37:46.747Z,1014.73
2018-11-03T04:38:46.748Z,1014.72
2018-11-03T04:39:46.766Z,1014.69
2018-11-03T04:40:46.778Z,1014.71
2018-11-03T04:41:46.789Z,1014.73
2018-11-03T04:42:46.809Z,1014.72
2018-11-03T04:43:46.831Z,1014.76
2018-11-03T04:44:46.846Z,1014.77
2018-11-03T04:45:46.854Z,1014.74
2018-11-03T04:46:46.870Z,1014.71
2018-11-03T04:47:46.901Z,1014.70
2018-11-03T04:48:46.902Z,1014.72
2018-11-03T04:49:46.913Z,1014.66
2018-11-03T04:50:46.954Z,1014.68
2018-11-03T04:51:46.942Z,1014.73
2018-11-03T04:52:46.959Z,1014.67
2018-11-03T04:53:46.980Z,1014.70
2018-11-03T04:54:46.989Z,1014.70
2018-11-03T04:55:47.005Z,1014.66
2018-11-03T04:56:47.022Z,1014.66
2018-11-03T04:57:47.053Z,1014.69
2018-11-03T04:58:47.058Z,1014.69
2018-11-03T04:59:47.070Z,1014.71
2018-11-03T05:00:47.084Z,1014.71
2018-11-03T05:01:47.097Z,1014.71
2018-11-03T05:02:47.107Z,1014.72
2018-11-03T05:03:47.130Z,1014.74
2018-11-03T05:04:47.139Z,1014.76
2018-11-03T05:05:47.174Z,1014.75
2018-11-03T05:06:47.169Z,1014.75
2018-11-03T05:07:47.198Z,1014.78
2018-11-03T05:08:47.205Z,1014.76
2018-11-03T05:09:47.267Z,1014.75
2018-11-03T05:10:47.241Z,1014.73
2018-11-03T05:11:47.257Z,1014.73
2018-11-03T05:12:47.264Z,1014.73
2018-11-03T05:13:47.275Z,1014.73
2018-11-03T05:14:47.292Z,1014.71
2018-11-03T05:15:47.307Z,1014.71
2018-11-03T05:16:47.332Z,1014.70
2018-11-03T05:17:47.335Z,1014.71
2018-11-03T05:18:47.360Z,1014.72
2018-11-03T05:19:47.366Z,1014.72
2018-11-03T05:20:47.386Z,1014.73
2018-11-03T05:21:47.397Z,1014.76
2018-11-03T05:22:47.414Z,1014.78
2018-11-03T05:23:47.432Z,1014.79
2018-11-03T05:24:47.443Z,1014.81
2018-11-03T05:25:47.462Z,1014.80
2018-11-03T05:26:47.476Z,1014.79
2018-11-03T05:27:47.496Z,1014.80
2018-11-03T05:28:47.500Z,1014.83
2018-11-03T05:29:47.519Z,1014.83
2018-11-03T05:30:47.543Z,1014.79
2018-11-03T05:31:47.552Z,1014.85
2018-11-03T05:32:47.561Z,1014.79
2018-11-03T05:33:47.582Z,1014.78
2018-11-03T05:34:47.594Z,1014.78
2018-11-03T05:35:47.621Z,1014.79
2018-11-03T05:36:47.668Z,1014.73
2018-11-03T05:37:47.639Z,1014.75
2018-11-03T05:38:47.654Z,1014.77
2018-11-03T05:39:47.669Z,1014.79
2018-11-03T05:40:47.687Z,1014.74
2018-11-03T05:41:47.704Z,1014.76
2018-11-03T05:42:47.716Z,1014.77
2018-11-03T05:43:47.726Z,1014.76
2018-11-03T05:44:47.743Z,1014.76
2018-11-03T05:45:47.760Z,1014.75
2018-11-03T05:46:47.786Z,1014.78
2018-11-03T05:47:47.801Z,1014.76
2018-11-03T05:48:47.812Z,1014.76
2018-11-03T05:49:47.820Z,1014.78
2018-11-03T05:50:47.851Z,1014.79
2018-11-03T05:51:47.849Z,1014.82
2018-11-03T05:52:47.869Z,1014.86
2018-11-03T05:53:47.890Z,1014.90
2018-11-03T05:54:47.894Z,1014.94
2018-11-03T05:55:47.907Z,1014.94
2018-11-03T05:56:47.923Z,1014.94
2018-11-03T05:57:47.946Z,1014.92
2018-11-03T05:58:47.998Z,1014.95
2018-11-03T05:59:48.002Z,1014.93
2018-11-03T06:00:47.993Z,1014.88
2018-11-03T06:01:48.012Z,1014.92
2018-11-03T06:02:48.016Z,1014.92
2018-11-03T06:03:48.031Z,1014.92
2018-11-03T06:04:48.048Z,1014.96
2018-11-03T06:05:48.056Z,1014.94
2018-11-03T06:06:48.077Z,1014.95
2018-11-03T06:07:48.083Z,1014.96
2018-11-03T06:08:48.155Z,1014.98
2018-11-03T06:09:48.145Z,1014.99
2018-11-03T06:10:48.133Z,1014.98
2018-11-03T06:11:48.150Z,1015.02
2018-11-03T06:12:48.162Z,1014.99
2018-11-03T06:13:48.177Z,1015.07
2018-11-03T06:14:48.193Z,1015.04
2018-11-03T06:15:48.220Z,1015.03
2018-11-03T06:16:48.223Z,1015.05
2018-11-03T06:17:48.250Z,1015.03
2018-11-03T06:18:48.255Z,1015.08
2018-11-03T06:19:48.263Z,1015.07
2018-11-03T06:20:48.281Z,1015.11
2018-11-03T06:21:48.293Z,1015.13
2018-11-03T06:22:48.324Z,1015.13
2018-11-03T06:23:48.333Z,1015.16
2018-11-03T06:24:48.346Z,1015.16
2018-11-03T06:25:48.352Z,1015.21
2018-11-03T06:26:48.367Z,1015.21
2018-11-03T06:27:48.421Z,1015.19
2018-11-03T06:28:48.397Z,1015.23
2018-11-03T06:29:48.426Z,1015.21
2018-11-03T06:30:48.432Z,1015.20
2018-11-03T06:31:48.445Z,1015.20
2018-11-03T06:32:48.457Z,1015.22
2018-11-03T06:33:48.469Z,1015.23
2018-11-03T06:34:48.483Z,1015.21
2018-11-03T06:35:48.504Z,1015.21
2018-11-03T06:36:48.515Z,1015.25
2018-11-03T06:37:48.530Z,1015.27
2018-11-03T06:38:48.583Z,1015.27
2018-11-03T06:39:48.563Z,1015.32
2018-11-03T06:40:48.573Z,1015.33
2018-11-03T06:41:48.586Z,1015.28
2018-11-03T06:42:48.605Z,1015.33
2018-11-03T06:43:48.620Z,1015.35
2018-11-03T06:44:48.651Z,1015.36
2018-11-03T06:45:48.648Z,1015.41
2018-11-03T06:46:48.681Z,1015.39
2018-11-03T06:47:48.679Z,1015.40
2018-11-03T06:48:48.698Z,1015.44
2018-11-03T06:49:48.714Z,1015.47
2018-11-03T06:50:48.725Z,1015.45
2018-11-03T06:51:48.737Z,1015.48
2018-11-03T06:52:48.764Z,1015.50
2018-11-03T06:53:48.766Z,1015.50
2018-11-03T06:54:48.782Z,1015.50
2018-11-03T06:55:48.793Z,1015.51
2018-11-03T06:56:48.808Z,1015.54
2018-11-03T06:57:48.825Z,1015.54
2018-11-03T06:58:48.848Z,1015.59
2018-11-03T06:59:48.855Z,1015.60
2018-11-03T07:00:48.876Z,1015.59
2018-11-03T07:01:48.915Z,1015.58
2018-11-03T07:02:48.904Z,1015.61
2018-11-03T07:03:48.919Z,1015.64
2018-11-03T07:04:48.937Z,1015.66
2018-11-03T07:05:48.948Z,1015.66
2018-11-03T07:06:48.964Z,1015.66
2018-11-03T07:07:48.992Z,1015.66
2018-11-03T07:08:48.988Z,1015.65
2018-11-03T07:09:49.016Z,1015.71
2018-11-03T07:10:49.020Z,1015.79
2018-11-03T07:11:49.069Z,1015.84
2018-11-03T07:12:49.183Z,1015.86
2018-11-03T07:13:49.081Z,1015.88
2018-11-03T07:14:49.093Z,1015.90
2018-11-03T07:15:49.096Z,1015.92
2018-11-03T07:16:49.114Z,1015.89
2018-11-03T07:17:49.263Z,1015.93
2018-11-03T07:18:49.149Z,1015.92
2018-11-03T07:19:49.159Z,1015.89
2018-11-03T07:20:49.176Z,1015.92
2018-11-03T07:21:49.344Z,1015.92
2018-11-03T07:22:49.245Z,1015.98
2018-11-03T07:23:49.227Z,1015.96
2018-11-03T07:24:49.249Z,1015.93
2018-11-03T07:25:49.261Z,1015.91
2018-11-03T07:26:49.279Z,1015.92
2018-11-03T07:27:49.293Z,1015.96
2018-11-03T07:28:49.316Z,1015.96
2018-11-03T07:29:49.390Z,1015.98
2018-11-03T07:30:49.349Z,1016.02
2018-11-03T07:31:49.372Z,1015.99
2018-11-03T07:32:49.385Z,1016.01
2018-11-03T07:33:49.399Z,1016.06
2018-11-03T07:34:49.422Z,1016.09
2018-11-03T07:35:49.440Z,1016.09
2018-11-03T07:36:49.471Z,1016.07
2018-11-03T07:37:49.474Z,1016.05
2018-11-03T07:38:49.503Z,1016.10
2018-11-03T07:39:49.513Z,1016.08
2018-11-03T07:40:49.559Z,1016.11
2018-11-03T07:41:49.549Z,1016.16
2018-11-03T07:42:49.630Z,1016.12
2018-11-03T07:43:49.616Z,1016.12
2018-11-03T07:44:49.608Z,1016.14
2018-11-03T07:45:49.630Z,1016.16
2018-11-03T07:46:49.641Z,1016.20
2018-11-03T07:47:49.666Z,1016.19
2018-11-03T07:48:49.788Z,1016.21
2018-11-03T07:49:49.700Z,1016.20
2018-11-03T07:50:49.732Z,1016.21
2018-11-03T07:51:49.740Z,1016.23
2018-11-03T07:52:49.762Z,1016.24
2018-11-03T07:53:49.782Z,1016.30
2018-11-03T07:54:49.848Z,1016.29
2018-11-03T07:55:49.811Z,1016.30
2018-11-03T07:56:49.832Z,1016.32
2018-11-03T07:57:49.858Z,1016.36
2018-11-03T07:58:49.895Z,1016.38
2018-11-03T07:59:49.914Z,1016.39
2018-11-03T08:00:49.910Z,1016.43
2018-11-03T08:01:49.930Z,1016.42
2018-11-03T08:02:49.949Z,1016.42
2018-11-03T08:03:49.964Z,1016.34
2018-11-03T08:04:50.058Z,1016.38
2018-11-03T08:05:50.005Z,1016.32
2018-11-03T08:06:50.036Z,1016.33
2018-11-03T08:07:50.061Z,1016.33
2018-11-03T08:08:50.080Z,1016.34
2018-11-03T08:09:50.109Z,1016.30
2018-11-03T08:10:50.096Z,1016.24
2018-11-03T08:11:50.117Z,1016.21
2018-11-03T08:12:50.137Z,1016.17
2018-11-03T08:13:50.168Z,1016.23
2018-11-03T08:14:50.174Z,1016.20
2018-11-03T08:15:50.255Z,1016.22
2018-11-03T08:16:50.213Z,1016.24
2018-11-03T08:17:50.231Z,1016.19
2018-11-03T08:18:50.252Z,1016.17
2018-11-03T08:19:50.266Z,1016.16
2018-11-03T08:20:50.290Z,1016.16
2018-11-03T08:21:50.310Z,1016.17
2018-11-03T08:22:50.323Z,1016.13
2018-11-03T08:23:50.421Z,1016.08
2018-11-03T08:24:50.356Z,1016.04
2018-11-03T08:25:50.382Z,1016.03
2018-11-03T08:26:50.396Z,1016.06
2018-11-03T08:27:50.433Z,1016.01
2018-11-03T08:28:50.430Z,1016.08
2018-11-03T08:29:50.455Z,1016.06
2018-11-03T08:30:50.477Z,1016.11
2018-11-03T08:31:50.493Z,1016.11
2018-11-03T08:32:50.500Z,1016.13
2018-11-03T08:33:50.537Z,1016.12
2018-11-03T08:34:50.566Z,1016.12
2018-11-03T08:35:50.556Z,1016.14
2018-11-03T08:36:50.581Z,1016.13
2018-11-03T08:37:50.599Z,1016.15
2018-11-03T08:38:50.626Z,1016.15
2018-11-03T08:39:50.635Z,1016.13
2018-11-03T08:40:50.653Z,1016.17
2018-11-03T08:41:50.668Z,1016.13
2018-11-03T08:42:50.681Z,1016.11
2018-11-03T08:43:50.747Z,1016.11
2018-11-03T08:44:50.740Z,1016.12
2018-11-03T08:45:50.744Z,1016.07
2018-11-03T08:46:50.755Z,1016.07
2018-11-03T08:47:50.773Z,1016.09
2018-11-03T08:48:50.860Z,1016.08
2018-11-03T08:49:50.811Z,1016.05
2018-11-03T08:50:50.819Z,1016.02
2018-11-03T08:51:50.849Z,1016.03
2018-11-03T08:52:50.858Z,1016.05
2018-11-03T08:53:50.875Z,1016.05
2018-11-03T08:54:50.897Z,1016.05
2018-11-03T08:55:50.920Z,1016.02
2018-11-03T08:56:50.960Z,1016.01
2018-11-03T08:57:50.948Z,1016.02
2018-11-03T08:58:50.979Z,1015.95
2018-11-03T08:59:51.129Z,1015.91
2018-11-03T09:00:51.008Z,1015.91
2018-11-03T09:01:51.026Z,1015.91
2018-11-03T09:02:51.033Z,1015.92
2018-11-03T09:03:51.053Z,1015.89
2018-11-03T09:04:51.101Z,1015.90
2018-11-03T09:05:51.098Z,1015.88
2018-11-03T09:06:51.135Z,1015.87
2018-11-03T09:07:51.126Z,1015.90
2018-11-03T09:08:51.151Z,1015.89
2018-11-03T09:09:51.163Z,1015.81
2018-11-03T09:10:51.206Z,1015.84
2018-11-03T09:11:51.198Z,1015.85
2018-11-03T09:12:51.215Z,1015.89
2018-11-03T09:13:51.232Z,1015.91
2018-11-03T09:14:51.343Z,1015.86
2018-11-03T09:15:51.270Z,1015.87
2018-11-03T09:16:51.285Z,1015.87
2018-11-03T09:17:51.302Z,1015.86
2018-11-03T09:18:51.322Z,1015.88
2018-11-03T09:19:51.346Z,1015.82
2018-11-03T09:20:51.364Z,1015.79
2018-11-03T09:21:51.510Z,1015.77
2018-11-03T09:22:51.395Z,1015.79
2018-11-03T09:23:51.418Z,1015.74
2018-11-03T09:24:51.439Z,1015.75
2018-11-03T09:25:51.459Z,1015.74
2018-11-03T09:26:51.474Z,1015.76
2018-11-03T09:27:51.484Z,1015.72
2018-11-03T09:28:51.521Z,1015.72
2018-11-03T09:29:51.525Z,1015.67
2018-11-03T09:30:51.541Z,1015.61
2018-11-03T09:31:51.635Z,1015.61
2018-11-03T09:32:51.575Z,1015.62
2018-11-03T09:33:51.617Z,1015.65
2018-11-03T09:34:51.840Z,1015.70
2018-11-03T09:35:51.634Z,1015.68
2018-11-03T09:36:51.657Z,1015.65
2018-11-03T09:37:51.672Z,1015.69
2018-11-03T09:38:51.737Z,1015.66
2018-11-03T09:39:51.745Z,1015.62
2018-11-03T09:40:51.727Z,1015.66
2018-11-03T09:41:51.743Z,1015.64
2018-11-03T09:42:51.768Z,1015.54
2018-11-03T09:43:51.780Z,1015.55
2018-11-03T09:44:51.820Z,1015.65
2018-11-03T09:45:51.819Z,1015.57
2018-11-03T09:46:51.833Z,1015.66
2018-11-03T09:47:51.856Z,1015.57
2018-11-03T09:48:51.872Z,1015.63
2018-11-03T09:49:51.896Z,1015.57
2018-11-03T09:50:51.925Z,1015.58
2018-11-03T09:51:51.952Z,1015.61
2018-11-03T09:52:51.948Z,1015.65
2018-11-03T09:53:51.969Z,1015.60
2018-11-03T09:54:51.986Z,1015.57
2018-11-03T09:55:52.011Z,1015.57
2018-11-03T09:56:52.073Z,1015.57
2018-11-03T09:57:52.072Z,1015.61
2018-11-03T09:58:52.090Z,1015.60
2018-11-03T09:59:52.091Z,1015.59
2018-11-03T10:00:52.093Z,1015.61
2018-11-03T10:01:52.109Z,1015.65
2018-11-03T10:02:52.138Z,1015.63
2018-11-03T10:03:52.169Z,1015.60
2018-11-03T10:04:52.165Z,1015.62
2018-11-03T10:05:52.183Z,1015.58
2018-11-03T10:06:52.202Z,1015.50
2018-11-03T10:07:52.221Z,1015.54
2018-11-03T10:08:52.245Z,1015.52
2018-11-03T10:09:52.271Z,1015.55
2018-11-03T10:10:52.301Z,1015.54
2018-11-03T10:11:52.297Z,1015.49
2018-11-03T10:12:52.342Z,1015.48
2018-11-03T10:13:52.334Z,1015.48
2018-11-03T10:14:52.353Z,1015.51
2018-11-03T10:15:52.427Z,1015.49
2018-11-03T10:16:52.391Z,1015.48
2018-11-03T10:17:52.413Z,1015.46
2018-11-03T10:18:52.443Z,1015.45
2018-11-03T10:19:52.451Z,1015.46
2018-11-03T10:20:52.471Z,1015.45
2018-11-03T10:21:52.489Z,1015.47
2018-11-03T10:22:52.563Z,1015.42
2018-11-03T10:23:52.545Z,1015.37
2018-11-03T10:24:52.544Z,1015.36
2018-11-03T10:25:52.581Z,1015.34
2018-11-03T10:26:52.585Z,1015.32
2018-11-03T10:27:52.601Z,1015.28
2018-11-03T10:28:52.619Z,1015.31
2018-11-03T10:29:52.641Z,1015.29
2018-11-03T10:30:52.694Z,1015.30
2018-11-03T10:31:52.676Z,1015.33
2018-11-03T10:32:52.699Z,1015.32
2018-11-03T10:33:52.802Z,1015.29
2018-11-03T10:34:52.748Z,1015.23
2018-11-03T10:35:52.755Z,1015.24
2018-11-03T10:36:52.774Z,1015.24
2018-11-03T10:37:52.790Z,1015.23
2018-11-03T10:38:52.814Z,1015.19
2018-11-03T10:39:52.843Z,1015.16
2018-11-03T10:40:52.857Z,1015.16
2018-11-03T10:41:52.869Z,1015.17
2018-11-03T10:42:52.905Z,1015.13
2018-11-03T10:43:52.917Z,1015.10
2018-11-03T10:44:52.935Z,1015.08
2018-11-03T10:45:53.063Z,1015.08
2018-11-03T10:46:52.975Z,1015.10
2018-11-03T10:47:52.988Z,1015.08
2018-11-03T10:48:53.031Z,1015.10
2018-11-03T10:49:53.027Z,1015.09
2018-11-03T10:50:53.051Z,1015.13
2018-11-03T10:51:53.061Z,1015.10
2018-11-03T10:52:53.084Z,1015.08
2018-11-03T10:53:53.102Z,1015.12
2018-11-03T10:54:53.122Z,1015.10
2018-11-03T10:55:53.145Z,1015.07
2018-11-03T10:56:53.156Z,1015.07
2018-11-03T10:57:53.179Z,1015.08
2018-11-03T10:58:53.205Z,1015.04
2018-11-03T10:59:53.220Z,1015.02
2018-11-03T11:00:53.244Z,1015.04
2018-11-03T11:01:53.255Z,1015.04
2018-11-03T11:02:53.285Z,1015.01
2018-11-03T11:03:53.302Z,1015.01
2018-11-03T11:04:53.316Z,1015.05
2018-11-03T11:05:53.347Z,1015.02
2018-11-03T11:06:53.352Z,1015.00
2018-11-03T11:07:53.373Z,1015.00
2018-11-03T11:08:53.391Z,1014.97
2018-11-03T11:09:53.407Z,1014.95
2018-11-03T11:10:53.430Z,1014.97
2018-11-03T11:11:53.450Z,1014.92
2018-11-03T11:12:53.512Z,1014.93
2018-11-03T11:13:53.529Z,1014.91
2018-11-03T11:14:53.503Z,1014.87
2018-11-03T11:15:53.659Z,1014.85
2018-11-03T11:16:53.620Z,1014.88
2018-11-03T11:17:53.565Z,1014.85
2018-11-03T11:18:53.587Z,1014.83
2018-11-03T11:19:53.603Z,1014.80
2018-11-03T11:20:53.627Z,1014.79
2018-11-03T11:21:53.651Z,1014.74
2018-11-03T11:22:53.668Z,1014.72
2018-11-03T11:23:53.753Z,1014.69
2018-11-03T11:24:53.956Z,1014.69
2018-11-03T11:25:53.718Z,1014.66
2018-11-03T11:26:53.748Z,1014.71
2018-11-03T11:27:53.766Z,1014.66
2018-11-03T11:28:53.801Z,1014.62
2018-11-03T11:29:53.799Z,1014.66
2018-11-03T11:30:53.825Z,1014.60
2018-11-03T11:31:53.853Z,1014.61
2018-11-03T11:32:53.885Z,1014.59
2018-11-03T11:33:53.892Z,1014.58
2018-11-03T11:34:53.912Z,1014.59
2018-11-03T11:35:53.924Z,1014.59
2018-11-03T11:36:53.946Z,1014.58
2018-11-03T11:37:53.960Z,1014.59
2018-11-03T11:38:53.980Z,1014.57
2018-11-03T11:39:53.999Z,1014.56
2018-11-03T11:40:54.015Z,1014.59
2018-11-03T11:41:54.035Z,1014.56
2018-11-03T11:42:54.123Z,1014.52
2018-11-03T11:43:54.075Z,1014.48
2018-11-03T11:44:54.093Z,1014.49
2018-11-03T11:45:54.112Z,1014.49
2018-11-03T11:46:54.137Z,1014.46
2018-11-03T11:47:54.153Z,1014.42
2018-11-03T11:48:54.187Z,1014.44
2018-11-03T11:49:54.198Z,1014.44
2018-11-03T11:50:54.221Z,1014.40
2018-11-03T11:51:54.236Z,1014.39
2018-11-03T11:52:54.262Z,1014.37
2018-11-03T11:53:54.288Z,1014.35
2018-11-03T11:54:54.341Z,1014.30
2018-11-03T11:55:54.316Z,1014.27
2018-11-03T11:56:54.332Z,1014.30
2018-11-03T11:57:54.349Z,1014.27
2018-11-03T11:58:54.376Z,1014.25
2018-11-03T11:59:54.391Z,1014.26
2018-11-03T12:00:54.413Z,1014.28
2018-11-03T12:01:54.439Z,1014.25
2018-11-03T12:02:54.450Z,1014.26
2018-11-03T12:03:54.473Z,1014.23
2018-11-03T12:04:54.497Z,1014.23
2018-11-03T12:05:54.549Z,1014.19